This is the latest recevied weather packets stored in our database for station/object N8QQQ. If no packets are shown the sender has not sent any weather packets the latest 10 day(s).
| Time | Temp. | Humidity | Pressure | Rain* | Wind** | Luminosity | Snow |
|---|---|---|---|---|---|---|---|
| 1777988501 | 2.22° C | 87% | 1003.8 hPa | 0 mm | - | 95 W/m² | - |
| 1777988197 | 2.22° C | 90% | 1003.8 hPa | 0 mm | - | 78 W/m² | - |
| 1777987893 | 1.67° C | 92% | 1003.7 hPa | 0 mm | - | 47 W/m² | - |
| 1777987589 | 1.11° C | 92% | 1003.8 hPa | 0 mm | - | 72 W/m² | - |
| 1777987287 | 1.11° C | 91% | 1003.7 hPa | 0 mm | - | 46 W/m² | - |
| 1777986984 | 1.67° C | 89% | 1003.9 hPa | 0 mm | - | 32 W/m² | - |
| 1777986682 | 2.78° C | 82% | 1003.7 hPa | 0 mm | - | 14 W/m² | - |
| 1777986380 | 2.78° C | 80% | 1003.3 hPa | 0 mm | - | 75 W/m² | - |
| 1777986078 | 2.78° C | 81% | 1003.3 hPa | 0 mm | - | 105 W/m² | - |
| 1777985774 | 2.78° C | 82% | 1003.5 hPa | 0 mm | - | 73 W/m² | - |
| 1777985471 | 2.22° C | 85% | 1003.3 hPa | 0 mm | - | 99 W/m² | - |
| 1777985167 | 1.11° C | 88% | 1003.4 hPa | 0 mm | - | 100 W/m² | - |
| 1777984864 | 0.56° C | 91% | 1003.4 hPa | 0 mm | - | 48 W/m² | - |
| 1777984560 | 1.11° C | 91% | 1003.4 hPa | 0 mm | - | 24 W/m² | - |
| 1777984256 | 1.11° C | 91% | 1003.6 hPa | 0 mm | - | 27 W/m² | - |
| 1777983953 | 0.56° C | 93% | 1003.2 hPa | 0 mm | - | 49 W/m² | - |
| 1777983651 | 0.56° C | 94% | 1003.4 hPa | 0 mm | - | 30 W/m² | - |
| 1777983347 | 0.56° C | 93% | 1003.2 hPa | 0 mm | - | 20 W/m² | - |
| 1777983044 | 0.56° C | 92% | 1003.4 hPa | 0 mm | - | 15 W/m² | - |
| 1777982740 | 0.56° C | 91% | 1003.5 hPa | 0 mm | - | 8 W/m² | - |
| 1777982436 | 1.11° C | 88% | 1003.4 hPa | 0 mm | - | 9 W/m² | - |
| 1777982130 | 1.67° C | 84% | 1003.3 hPa | 0 mm | - | 10 W/m² | - |
| 1777981829 | 2.78° C | 75% | 1003.1 hPa | 0 mm | - | 10 W/m² | - |
| 1777981525 | 2.78° C | 75% | 1002.9 hPa | 0 mm | - | 15 W/m² | - |
| 1777981221 | 2.22° C | 74% | 1002.8 hPa | 0 mm | - | 15 W/m² | - |
* Rain latest hour (hover to see other rain measurements)
** Current wind speed in m/s (hover to see current wind gust speed)